Panola, Illinois
Current Conditions -  °F | °C
As of 3:56 AM on Saturday 25 Oct 2014 (Local Time) from KBMI Reporting Station
Clear Clear  
Wind Chill: 57°   Ceiling: Unl
Heat Index: 57°   Visibility: 10mi
Dew Point: 53°   Wind: 7mph
Humidity: 87%   Direction: 260°W
Pressure: 29.95"   Gusts: NA
Location:  40.7564°N, 89.0023°W
Report Text: KBMI 250856Z AUTO 26006KT 10SM CLR 14/12 A2995 RMK AO2 58001 T01380116 SLP138
Loading
Personal Weather Stations






























Interactive Weather Map
Tropical Storm Tracking
New forecast layout! Learn more

10-Day Weather Forecast

Advertisements
Track Severe Weather on mobile